PROTK SSCT-SSKM
Flight info
| Callsign | PROTK |
|---|---|
| Flight time | 0h 11m |
| Altitude | 7500 |
| Route | DCT |
| Aircraft | PC12/L-SDFGRWY/S |
Departure
| Time | 2026-04-26 19:21 |
|---|---|
| Airport | Engenheiro Gastão de Mesquita Filho Airport (SSCT) |
Arrival
| Time | 2026-04-26 19:32 |
|---|---|
| Airport | Campo Mourão Airport (SSKM) |
| Time | Latitude | Longitude | Altitude | Speed | Heading |
|---|---|---|---|---|---|
| 2026-04-26 19:11 | -23.68856 | -52.64114 | 1742 ft | 0 kts | 204° |
| 2026-04-26 19:14 | -23.68863 | -52.64118 | 1742 ft | 1 kts | 207° |
| 2026-04-26 19:14 | -23.68866 | -52.64120 | 1742 ft | 0 kts | 208° |
| 2026-04-26 19:15 | -23.68869 | -52.64121 | 1742 ft | 1 kts | 209° |
| 2026-04-26 19:15 | -23.68881 | -52.64129 | 1742 ft | 2 kts | 208° |
| 2026-04-26 19:15 | -23.68903 | -52.64140 | 1743 ft | 3 kts | 184° |
| 2026-04-26 19:16 | -23.68924 | -52.64112 | 1743 ft | 6 kts | 120° |
| 2026-04-26 19:16 | -23.68964 | -52.64110 | 1743 ft | 6 kts | 210° |
| 2026-04-26 19:16 | -23.69007 | -52.64132 | 1744 ft | 6 kts | 205° |
| 2026-04-26 19:16 | -23.69047 | -52.64153 | 1744 ft | 6 kts | 207° |
| 2026-04-26 19:17 | -23.69085 | -52.64174 | 1745 ft | 6 kts | 204° |
| 2026-04-26 19:17 | -23.69123 | -52.64192 | 1745 ft | 5 kts | 205° |
| 2026-04-26 19:17 | -23.69159 | -52.64211 | 1746 ft | 5 kts | 206° |
| 2026-04-26 19:17 | -23.69196 | -52.64232 | 1746 ft | 5 kts | 208° |
| 2026-04-26 19:18 | -23.69232 | -52.64251 | 1747 ft | 5 kts | 203° |
| 2026-04-26 19:18 | -23.69274 | -52.64270 | 1747 ft | 7 kts | 205° |
| 2026-04-26 19:18 | -23.69328 | -52.64298 | 1748 ft | 9 kts | 206° |
| 2026-04-26 19:18 | -23.69392 | -52.64332 | 1748 ft | 10 kts | 208° |
| 2026-04-26 19:19 | -23.69461 | -52.64368 | 1749 ft | 11 kts | 205° |
| 2026-04-26 19:19 | -23.69536 | -52.64408 | 1750 ft | 12 kts | 205° |
| 2026-04-26 19:19 | -23.69615 | -52.64440 | 1751 ft | 10 kts | 197° |
| 2026-04-26 19:19 | -23.69611 | -52.64446 | 1751 ft | 3 kts | 27° |
| 2026-04-26 19:20 | -23.69483 | -52.64383 | 1749 ft | 53 kts | 19° |
| 2026-04-26 19:20 | -23.69353 | -52.64314 | 1748 ft | 74 kts | 29° |
| 2026-04-26 19:20 | -23.68301 | -52.63746 | 2102 ft | 98 kts | 26° |
| 2026-04-26 19:20 | -23.67680 | -52.63295 | 2362 ft | 109 kts | 21° |
| 2026-04-26 19:21 | -23.67013 | -52.62898 | 2696 ft | 112 kts | 25° |
| 2026-04-26 19:21 | -23.66533 | -52.62217 | 3044 ft | 120 kts | 68° |
| 2026-04-26 19:21 | -23.66586 | -52.61299 | 3354 ft | 129 kts | 113° |
| 2026-04-26 19:21 | -23.67176 | -52.60598 | 3724 ft | 126 kts | 153° |
| 2026-04-26 19:22 | -23.67953 | -52.60181 | 4111 ft | 124 kts | 160° |
| 2026-04-26 19:22 | -23.68748 | -52.59803 | 4462 ft | 125 kts | 160° |
| 2026-04-26 19:22 | -23.69551 | -52.59428 | 4825 ft | 126 kts | 161° |
| 2026-04-26 19:22 | -23.70359 | -52.59046 | 5165 ft | 128 kts | 160° |
| 2026-04-26 19:23 | -23.71175 | -52.58658 | 5519 ft | 128 kts | 161° |
| 2026-04-26 19:23 | -23.72000 | -52.58258 | 5851 ft | 130 kts | 161° |
| 2026-04-26 19:23 | -23.72834 | -52.57854 | 6174 ft | 132 kts | 161° |
| 2026-04-26 19:23 | -23.73686 | -52.57475 | 6507 ft | 131 kts | 168° |
| 2026-04-26 19:24 | -23.74561 | -52.57200 | 6830 ft | 132 kts | 171° |
| 2026-04-26 19:24 | -23.75441 | -52.56937 | 7162 ft | 132 kts | 171° |
| 2026-04-26 19:24 | -23.77383 | -52.56262 | 7447 ft | 171 kts | 157° |
| 2026-04-26 19:25 | -23.78487 | -52.55535 | 7442 ft | 197 kts | 147° |
| 2026-04-26 19:25 | -23.78856 | -52.55245 | 7439 ft | 204 kts | 145° |
| 2026-04-26 19:25 | -23.80842 | -52.53505 | 7427 ft | 229 kts | 142° |
| 2026-04-26 19:25 | -23.82081 | -52.52372 | 7432 ft | 236 kts | 141° |
| 2026-04-26 19:26 | -23.83351 | -52.51207 | 7417 ft | 241 kts | 142° |
| 2026-04-26 19:26 | -23.84692 | -52.49979 | 7023 ft | 261 kts | 141° |
| 2026-04-26 19:26 | -23.86084 | -52.48708 | 6591 ft | 259 kts | 142° |
| 2026-04-26 19:26 | -23.87448 | -52.47452 | 6160 ft | 255 kts | 141° |
| 2026-04-26 19:27 | -23.88796 | -52.46216 | 5746 ft | 250 kts | 142° |
| 2026-04-26 19:27 | -23.90108 | -52.45013 | 5342 ft | 245 kts | 142° |
| 2026-04-26 19:27 | -23.91404 | -52.43825 | 4926 ft | 238 kts | 142° |
| 2026-04-26 19:27 | -23.92655 | -52.42678 | 4518 ft | 233 kts | 141° |
| 2026-04-26 19:28 | -23.93884 | -52.41549 | 4109 ft | 229 kts | 141° |
| 2026-04-26 19:28 | -23.95081 | -52.40450 | 3700 ft | 223 kts | 141° |
| 2026-04-26 19:28 | -23.96259 | -52.39367 | 3283 ft | 217 kts | 142° |
| 2026-04-26 19:28 | -23.97411 | -52.38308 | 2892 ft | 211 kts | 142° |
| 2026-04-26 19:29 | -23.98477 | -52.37327 | 2789 ft | 190 kts | 141° |
| 2026-04-26 19:29 | -23.99439 | -52.36440 | 2783 ft | 167 kts | 142° |
| 2026-04-26 19:29 | -24.00275 | -52.35673 | 2757 ft | 148 kts | 142° |
| 2026-04-26 19:29 | -24.01016 | -52.34929 | 2613 ft | 138 kts | 121° |
| 2026-04-26 19:30 | -24.01033 | -52.34024 | 2539 ft | 113 kts | 53° |
| 2026-04-26 19:30 | -24.00364 | -52.33611 | 2649 ft | 114 kts | 6° |
| 2026-04-26 19:30 | -23.99612 | -52.33467 | 2601 ft | 106 kts | 358° |
| 2026-04-26 19:30 | -23.99365 | -52.33454 | 2595 ft | 98 kts | 353° |
| 2026-04-26 19:31 | -23.98443 | -52.33913 | 2576 ft | 96 kts | 276° |
| 2026-04-26 19:31 | -23.98477 | -52.34667 | 2574 ft | 100 kts | 265° |
| 2026-04-26 19:31 | -23.98606 | -52.35381 | 2285 ft | 95 kts | 238° |
| 2026-04-26 19:31 | -23.99218 | -52.35610 | 2108 ft | 106 kts | 181° |
| 2026-04-26 19:32 | -23.99920 | -52.35639 | 1940 ft | 94 kts | 186° |
| 2026-04-26 19:32 | -24.00591 | -52.35669 | 1856 ft | 91 kts | 187° |
| 2026-04-26 19:32 | -24.01095 | -52.35694 | 1857 ft | 50 kts | 183° |
| 2026-04-26 19:32 | -24.01343 | -52.35705 | 1861 ft | 19 kts | 176° |
| 2026-04-26 19:33 | -24.01381 | -52.35707 | 1861 ft | 11 kts | 0° |
| 2026-04-26 19:33 | -24.01254 | -52.35703 | 1859 ft | 23 kts | 5° |
| 2026-04-26 19:33 | -24.01105 | -52.35693 | 1857 ft | 18 kts | 359° |
| 2026-04-26 19:33 | -24.01074 | -52.35744 | 1857 ft | 8 kts | 233° |
| 2026-04-26 19:34 | -24.01113 | -52.35758 | 1857 ft | 3 kts | 272° |
| 2026-04-26 19:34 | -24.01102 | -52.35758 | 1857 ft | 1 kts | 47° |
| 2026-04-26 19:34 | -24.01096 | -52.35755 | 1857 ft | 0 kts | 1° |